Historical Data

TheSutherlands

Weather at Humberside Airport

Current Weather from Humberside Airport

The information displayed on this page is from the METAR reports produced by Humberside Airport. Note that there are times when these are not generated.

Weather Report

Coded Weather Report: 2021/12/06 05:20 EGNJ 060520Z AUTO 21007KT 0250 FG BKN000/// 01/01 Q1011

Report issued: 2021/12/06 at 05:20 UTC

Weather: Code: AUTO
Wind: gentle breeze from the southwest (210 degrees) at 7 knots (8 mph, 13 kph, Force 3)
Visibility: 0250 metres
Weather: fog
Cloud: broken at 000 feet
Temperature: 1 C
Dewpoint: 1 C
Humidity: 100%
Pressure: 1011 hPa